sensor_id;sensor_type;location;lat;lon;timestamp;pressure;altitude;pressure_sealevel;temperature;humidity
11448;BME280;43755;49.736;8.734;2023-08-31T00:01:25;97241.16;;;12.24;100.00
11448;BME280;43755;49.736;8.734;2023-08-31T00:03:27;97247.22;;;12.26;100.00
11448;BME280;43755;49.736;8.734;2023-08-31T00:05:29;97242.59;;;12.30;100.00
11448;BME280;43755;49.736;8.734;2023-08-31T00:07:30;97235.00;;;12.38;100.00
11448;BME280;43755;49.736;8.734;2023-08-31T00:09:32;97239.94;;;12.30;100.00
11448;BME280;43755;49.736;8.734;2023-08-31T00:11:33;97245.41;;;12.27;100.00
11448;BME280;43755;49.736;8.734;2023-08-31T00:13:34;97241.06;;;12.26;100.00
11448;BME280;43755;49.736;8.734;2023-08-31T00:15:35;97239.63;;;12.20;100.00
11448;BME280;43755;49.736;8.734;2023-08-31T00:17:37;97242.97;;;12.24;100.00
11448;BME280;43755;49.736;8.734;2023-08-31T00:19:40;97241.34;;;12.21;100.00
11448;BME280;43755;49.736;8.734;2023-08-31T00:21:41;97247.31;;;12.11;100.00
11448;BME280;43755;49.736;8.734;2023-08-31T00:23:43;97247.38;;;12.09;100.00
11448;BME280;43755;49.736;8.734;2023-08-31T00:25:44;97241.34;;;12.07;100.00
11448;BME280;43755;49.736;8.734;2023-08-31T00:27:45;97243.88;;;12.09;100.00
11448;BME280;43755;49.736;8.734;2023-08-31T00:29:48;97251.47;;;12.15;100.00
11448;BME280;43755;49.736;8.734;2023-08-31T00:31:51;97245.06;;;12.19;100.00
11448;BME280;43755;49.736;8.734;2023-08-31T00:33:53;97235.47;;;12.16;100.00
11448;BME280;43755;49.736;8.734;2023-08-31T00:35:58;97243.06;;;12.22;100.00
11448;BME280;43755;49.736;8.734;2023-08-31T00:38:03;97244.38;;;12.29;100.00
11448;BME280;43755;49.736;8.734;2023-08-31T00:40:05;97245.41;;;12.27;100.00
11448;BME280;43755;49.736;8.734;2023-08-31T00:42:09;97252.81;;;12.22;100.00
11448;BME280;43755;49.736;8.734;2023-08-31T00:44:10;97242.03;;;12.25;100.00
11448;BME280;43755;49.736;8.734;2023-08-31T00:46:11;97240.19;;;12.25;100.00
11448;BME280;43755;49.736;8.734;2023-08-31T00:48:15;97240.03;;;12.28;100.00
11448;BME280;43755;49.736;8.734;2023-08-31T00:50:17;97248.75;;;12.30;100.00
11448;BME280;43755;49.736;8.734;2023-08-31T00:52:21;97252.63;;;12.25;100.00
11448;BME280;43755;49.736;8.734;2023-08-31T00:54:23;97254.50;;;12.23;100.00
11448;BME280;43755;49.736;8.734;2023-08-31T00:56:24;97259.63;;;12.26;100.00
11448;BME280;43755;49.736;8.734;2023-08-31T00:58:26;97250.91;;;12.24;100.00
11448;BME280;43755;49.736;8.734;2023-08-31T01:00:33;97249.78;;;12.28;100.00
11448;BME280;43755;49.736;8.734;2023-08-31T01:02:46;97245.41;;;12.27;100.00
11448;BME280;43755;49.736;8.734;2023-08-31T01:04:55;97246.56;;;12.23;100.00
11448;BME280;43755;49.736;8.734;2023-08-31T01:07:04;97243.31;;;12.32;100.00
11448;BME280;43755;49.736;8.734;2023-08-31T01:09:19;97254.06;;;12.30;100.00
11448;BME280;43755;49.736;8.734;2023-08-31T01:11:30;97256.31;;;12.22;100.00
11448;BME280;43755;49.736;8.734;2023-08-31T01:13:36;97251.38;;;12.16;100.00
11448;BME280;43755;49.736;8.734;2023-08-31T01:15:39;97261.03;;;12.17;100.00
11448;BME280;43755;49.736;8.734;2023-08-31T01:17:45;97269.22;;;12.43;100.00
11448;BME280;43755;49.736;8.734;2023-08-31T01:19:48;97265.13;;;12.23;100.00
11448;BME280;43755;49.736;8.734;2023-08-31T01:21:53;97261.53;;;12.24;100.00
11448;BME280;43755;49.736;8.734;2023-08-31T01:23:56;97259.72;;;12.24;100.00
11448;BME280;43755;49.736;8.734;2023-08-31T01:25:58;97263.97;;;12.55;100.00
11448;BME280;43755;49.736;8.734;2023-08-31T01:28:01;97265.88;;;12.39;100.00
11448;BME280;43755;49.736;8.734;2023-08-31T01:30:04;97271.00;;;12.28;100.00
11448;BME280;43755;49.736;8.734;2023-08-31T01:32:07;97269.47;;;12.24;100.00
11448;BME280;43755;49.736;8.734;2023-08-31T01:34:08;97266.63;;;12.27;100.00
11448;BME280;43755;49.736;8.734;2023-08-31T01:36:15;97270.13;;;12.27;100.00
11448;BME280;43755;49.736;8.734;2023-08-31T01:38:21;97268.34;;;12.28;100.00
11448;BME280;43755;49.736;8.734;2023-08-31T01:40:31;97276.88;;;12.33;100.00
11448;BME280;43755;49.736;8.734;2023-08-31T01:42:34;97275.53;;;12.26;100.00
11448;BME280;43755;49.736;8.734;2023-08-31T01:44:36;97263.03;;;12.28;100.00
11448;BME280;43755;49.736;8.734;2023-08-31T01:46:38;97270.13;;;12.27;100.00
11448;BME280;43755;49.736;8.734;2023-08-31T01:48:40;97277.16;;;12.28;100.00
11448;BME280;43755;49.736;8.734;2023-08-31T01:50:42;97277.44;;;12.24;100.00
11448;BME280;43755;49.736;8.734;2023-08-31T01:52:44;97269.47;;;12.24;100.00
11448;BME280;43755;49.736;8.734;2023-08-31T01:54:45;97276.38;;;12.26;100.00
11448;BME280;43755;49.736;8.734;2023-08-31T01:56:48;97270.13;;;12.27;100.00
11448;BME280;43755;49.736;8.734;2023-08-31T01:58:48;97271.94;;;12.27;100.00
11448;BME280;43755;49.736;8.734;2023-08-31T02:00:50;97268.25;;;12.29;100.00
11448;BME280;43755;49.736;8.734;2023-08-31T02:02:51;97269.19;;;12.28;100.00
11448;BME280;43755;49.736;8.734;2023-08-31T02:04:52;97274.50;;;12.28;100.00
11448;BME280;43755;49.736;8.734;2023-08-31T02:06:53;97280.66;;;12.29;100.00
11448;BME280;43755;49.736;8.734;2023-08-31T02:08:54;97275.53;;;12.26;100.00
11448;BME280;43755;49.736;8.734;2023-08-31T02:10:55;97281.41;;;12.17;100.00
11448;BME280;43755;49.736;8.734;2023-08-31T02:12:57;97279.03;;;12.12;100.00
11448;BME280;43755;49.736;8.734;2023-08-31T02:14:59;97287.66;;;12.16;100.00
11448;BME280;43755;49.736;8.734;2023-08-31T02:17:00;97283.97;;;12.18;100.00
11448;BME280;43755;49.736;8.734;2023-08-31T02:19:02;97283.84;;;12.20;100.00
11448;BME280;43755;49.736;8.734;2023-08-31T02:21:03;97276.94;;;12.17;100.00
11448;BME280;43755;49.736;8.734;2023-08-31T02:23:07;97276.50;;;12.25;100.00
11448;BME280;43755;49.736;8.734;2023-08-31T02:25:09;97277.16;;;12.28;100.00
11448;BME280;43755;49.736;8.734;2023-08-31T02:27:11;97272.88;;;12.26;100.00
11448;BME280;43755;49.736;8.734;2023-08-31T02:29:14;97272.88;;;12.26;100.00
11448;BME280;43755;49.736;8.734;2023-08-31T02:31:17;97276.75;;;12.20;100.00
11448;BME280;43755;49.736;8.734;2023-08-31T02:33:18;97275.91;;;12.20;100.00
11448;BME280;43755;49.736;8.734;2023-08-31T02:35:20;97285.56;;;12.21;100.00
11448;BME280;43755;49.736;8.734;2023-08-31T02:37:21;97289.63;;;12.26;100.00
11448;BME280;43755;49.736;8.734;2023-08-31T02:39:23;97277.44;;;12.24;100.00
11448;BME280;43755;49.736;8.734;2023-08-31T02:41:24;97287.84;;;12.27;100.00
11448;BME280;43755;49.736;8.734;2023-08-31T02:43:26;97285.19;;;12.27;100.00
11448;BME280;43755;49.736;8.734;2023-08-31T02:45:27;97291.56;;;12.24;100.00
11448;BME280;43755;49.736;8.734;2023-08-31T02:47:29;97282.06;;;12.20;100.00
11448;BME280;43755;49.736;8.734;2023-08-31T02:49:30;97290.00;;;12.20;100.00
11448;BME280;43755;49.736;8.734;2023-08-31T02:51:32;97290.69;;;12.24;100.00
11448;BME280;43755;49.736;8.734;2023-08-31T02:53:33;97278.19;;;12.26;100.00
11448;BME280;43755;49.736;8.734;2023-08-31T02:55:34;97285.97;;;12.29;100.00
11448;BME280;43755;49.736;8.734;2023-08-31T02:57:35;97286.81;;;12.29;100.00
11448;BME280;43755;49.736;8.734;2023-08-31T02:59:37;97291.25;;;12.29;100.00
11448;BME280;43755;49.736;8.734;2023-08-31T03:01:40;97291.25;;;12.29;100.00
11448;BME280;43755;49.736;8.734;2023-08-31T03:03:42;97290.50;;;12.27;100.00
11448;BME280;43755;49.736;8.734;2023-08-31T03:05:45;97285.03;;;12.30;100.00
11448;BME280;43755;49.736;8.734;2023-08-31T03:07:47;97290.03;;;12.35;100.00
11448;BME280;43755;49.736;8.734;2023-08-31T03:09:48;97291.75;;;12.36;100.00
11448;BME280;43755;49.736;8.734;2023-08-31T03:11:50;97292.66;;;12.20;100.00
11448;BME280;43755;49.736;8.734;2023-08-31T03:13:52;97297.09;;;12.20;100.00
11448;BME280;43755;49.736;8.734;2023-08-31T03:15:53;97293.03;;;12.14;100.00
11448;BME280;43755;49.736;8.734;2023-08-31T03:17:57;97297.31;;;12.17;100.00
11448;BME280;43755;49.736;8.734;2023-08-31T03:19:59;97307.91;;;12.17;100.00
11448;BME280;43755;49.736;8.734;2023-08-31T03:22:00;97307.06;;;12.16;100.00
11448;BME280;43755;49.736;8.734;2023-08-31T03:24:02;97305.19;;;12.18;100.00
11448;BME280;43755;49.736;8.734;2023-08-31T03:26:06;97310.13;;;12.24;100.00
11448;BME280;43755;49.736;8.734;2023-08-31T03:28:08;97323.47;;;12.23;100.00
11448;BME280;43755;49.736;8.734;2023-08-31T03:30:10;97312.16;;;12.19;100.00
11448;BME280;43755;49.736;8.734;2023-08-31T03:32:12;97310.72;;;12.14;100.00
11448;BME280;43755;49.736;8.734;2023-08-31T03:34:14;97317.25;;;12.08;100.00
11448;BME280;43755;49.736;8.734;2023-08-31T03:36:16;97316.22;;;12.11;100.00
11448;BME280;43755;49.736;8.734;2023-08-31T03:38:17;97314.59;;;12.08;100.00
11448;BME280;43755;49.736;8.734;2023-08-31T03:40:18;97317.44;;;12.05;100.00
11448;BME280;43755;49.736;8.734;2023-08-31T03:42:20;97327.88;;;12.08;100.00
11448;BME280;43755;49.736;8.734;2023-08-31T03:44:21;97317.19;;;12.10;100.00
11448;BME280;43755;49.736;8.734;2023-08-31T03:46:22;97325.03;;;12.11;100.00
11448;BME280;43755;49.736;8.734;2023-08-31T03:48:24;97323.34;;;12.10;100.00
11448;BME280;43755;49.736;8.734;2023-08-31T03:50:27;97319.91;;;12.08;100.00
11448;BME280;43755;49.736;8.734;2023-08-31T03:52:28;97325.22;;;12.08;100.00
11448;BME280;43755;49.736;8.734;2023-08-31T03:54:30;97320.28;;;12.02;100.00
11448;BME280;43755;49.736;8.734;2023-08-31T03:56:31;97327.91;;;11.93;100.00
11448;BME280;43755;49.736;8.734;2023-08-31T03:58:32;97330.56;;;11.93;100.00
11448;BME280;43755;49.736;8.734;2023-08-31T04:00:34;97335.09;;;11.90;100.00
11448;BME280;43755;49.736;8.734;2023-08-31T04:02:34;97331.59;;;11.90;100.00
11448;BME280;43755;49.736;8.734;2023-08-31T04:04:38;97328.19;;;11.88;100.00
11448;BME280;43755;49.736;8.734;2023-08-31T04:06:40;97334.16;;;11.92;100.00
11448;BME280;43755;49.736;8.734;2023-08-31T04:08:42;97334.25;;;11.90;100.00
11448;BME280;43755;49.736;8.734;2023-08-31T04:10:43;97343.41;;;11.84;100.00
11448;BME280;43755;49.736;8.734;2023-08-31T04:12:44;97344.47;;;11.82;100.00
11448;BME280;43755;49.736;8.734;2023-08-31T04:14:46;97347.28;;;11.79;100.00
11448;BME280;43755;49.736;8.734;2023-08-31T04:16:47;97353.53;;;11.78;100.00
11448;BME280;43755;49.736;8.734;2023-08-31T04:18:50;97353.84;;;11.72;100.00
11448;BME280;43755;49.736;8.734;2023-08-31T04:20:53;97348.72;;;11.69;100.00
11448;BME280;43755;49.736;8.734;2023-08-31T04:22:56;97355.22;;;11.63;100.00
11448;BME280;43755;49.736;8.734;2023-08-31T04:24:58;97355.22;;;11.63;100.00
11448;BME280;43755;49.736;8.734;2023-08-31T04:26:59;97359.66;;;11.63;100.00
11448;BME280;43755;49.736;8.734;2023-08-31T04:29:01;97361.53;;;11.61;100.00
11448;BME280;43755;49.736;8.734;2023-08-31T04:31:04;97361.06;;;11.54;100.00
11448;BME280;43755;49.736;8.734;2023-08-31T04:33:07;97359.34;;;11.53;100.00
11448;BME280;43755;49.736;8.734;2023-08-31T04:35:08;97364.53;;;11.55;100.00
11448;BME280;43755;49.736;8.734;2023-08-31T04:37:10;97370.94;;;11.50;100.00
11448;BME280;43755;49.736;8.734;2023-08-31T04:39:13;97361.41;;;11.48;100.00
11448;BME280;43755;49.736;8.734;2023-08-31T04:41:14;97363.28;;;11.46;100.00
11448;BME280;43755;49.736;8.734;2023-08-31T04:43:16;97362.34;;;11.47;100.00
11448;BME280;43755;49.736;8.734;2023-08-31T04:45:17;97362.69;;;11.41;100.00
11448;BME280;43755;49.736;8.734;2023-08-31T04:47:18;97367.19;;;11.39;100.00
11448;BME280;43755;49.736;8.734;2023-08-31T04:49:20;97371.56;;;11.40;100.00
11448;BME280;43755;49.736;8.734;2023-08-31T04:51:29;97373.00;;;11.45;100.00
11448;BME280;43755;49.736;8.734;2023-08-31T04:53:30;97374.28;;;11.38;100.00
11448;BME280;43755;49.736;8.734;2023-08-31T04:55:33;97377.00;;;11.37;100.00
11448;BME280;43755;49.736;8.734;2023-08-31T04:57:34;97379.00;;;11.33;100.00
11448;BME280;43755;49.736;8.734;2023-08-31T04:59:35;97376.59;;;11.29;100.00
11448;BME280;43755;49.736;8.734;2023-08-31T05:01:36;97374.75;;;11.31;100.00
11448;BME280;43755;49.736;8.734;2023-08-31T05:03:37;97385.47;;;11.28;100.00
11448;BME280;43755;49.736;8.734;2023-08-31T05:05:39;97389.84;;;11.29;100.00
11448;BME280;43755;49.736;8.734;2023-08-31T05:07:41;97389.66;;;11.32;100.00
11448;BME280;43755;49.736;8.734;2023-08-31T05:09:43;97384.56;;;11.29;100.00
11448;BME280;43755;49.736;8.734;2023-08-31T05:11:46;97388.31;;;11.25;100.00
11448;BME280;43755;49.736;8.734;2023-08-31T05:13:47;97390.44;;;11.34;100.00
11448;BME280;43755;49.736;8.734;2023-08-31T05:15:48;97393.09;;;11.34;100.00
11448;BME280;43755;49.736;8.734;2023-08-31T05:17:49;97400.09;;;11.35;100.00
11448;BME280;43755;49.736;8.734;2023-08-31T05:19:51;97400.94;;;11.35;100.00
11448;BME280;43755;49.736;8.734;2023-08-31T05:21:52;97406.31;;;11.34;100.00
11448;BME280;43755;49.736;8.734;2023-08-31T05:23:54;97397.38;;;11.36;100.00
11448;BME280;43755;49.736;8.734;2023-08-31T05:25:55;97407.84;;;11.38;100.00
11448;BME280;43755;49.736;8.734;2023-08-31T05:27:58;97409.66;;;11.37;100.00
11448;BME280;43755;49.736;8.734;2023-08-31T05:29:59;97406.59;;;11.45;100.00
11448;BME280;43755;49.736;8.734;2023-08-31T05:32:00;97419.75;;;11.46;100.00
11448;BME280;43755;49.736;8.734;2023-08-31T05:34:02;97424.00;;;11.49;100.00
11448;BME280;43755;49.736;8.734;2023-08-31T05:36:04;97420.53;;;11.48;100.00
11448;BME280;43755;49.736;8.734;2023-08-31T05:38:05;97425.03;;;11.46;100.00
11448;BME280;43755;49.736;8.734;2023-08-31T05:40:08;97427.28;;;11.54;100.00
11448;BME280;43755;49.736;8.734;2023-08-31T05:42:10;97427.09;;;11.57;100.00
11448;BME280;43755;49.736;8.734;2023-08-31T05:44:13;97427.16;;;11.56;100.00
11448;BME280;43755;49.736;8.734;2023-08-31T05:46:14;97427.69;;;11.62;100.00
11448;BME280;43755;49.736;8.734;2023-08-31T05:48:15;97424.88;;;11.65;100.00
11448;BME280;43755;49.736;8.734;2023-08-31T05:50:17;97430.78;;;11.70;100.00
11448;BME280;43755;49.736;8.734;2023-08-31T05:52:18;97424.63;;;11.70;100.00
11448;BME280;43755;49.736;8.734;2023-08-31T05:54:20;97426.88;;;11.77;100.00
11448;BME280;43755;49.736;8.734;2023-08-31T05:56:21;97437.56;;;11.76;100.00
11448;BME280;43755;49.736;8.734;2023-08-31T05:58:22;97439.00;;;11.81;100.00
11448;BME280;43755;49.736;8.734;2023-08-31T06:00:25;97440.38;;;11.88;100.00
11448;BME280;43755;49.736;8.734;2023-08-31T06:02:26;97445.66;;;11.88;100.00
11448;BME280;43755;49.736;8.734;2023-08-31T06:04:28;97441.13;;;11.90;100.00
11448;BME280;43755;49.736;8.734;2023-08-31T06:06:29;97446.25;;;11.94;100.00
11448;BME280;43755;49.736;8.734;2023-08-31T06:08:32;97451.63;;;11.92;100.00
11448;BME280;43755;49.736;8.734;2023-08-31T06:10:34;97448.72;;;11.97;100.00
11448;BME280;43755;49.736;8.734;2023-08-31T06:12:34;97451.97;;;12.02;100.00
11448;BME280;43755;49.736;8.734;2023-08-31T06:14:36;97458.91;;;12.04;100.00
11448;BME280;43755;49.736;8.734;2023-08-31T06:16:39;97449.56;;;12.13;100.00
11448;BME280;43755;49.736;8.734;2023-08-31T06:18:40;97457.56;;;12.27;100.00
11448;BME280;43755;49.736;8.734;2023-08-31T06:20:42;97451.75;;;12.36;100.00
11448;BME280;43755;49.736;8.734;2023-08-31T06:22:43;97456.50;;;12.45;100.00
11448;BME280;43755;49.736;8.734;2023-08-31T06:24:45;97456.00;;;12.68;100.00
11448;BME280;43755;49.736;8.734;2023-08-31T06:26:45;97454.75;;;12.74;100.00
11448;BME280;43755;49.736;8.734;2023-08-31T06:28:47;97462.06;;;12.85;100.00
11448;BME280;43755;49.736;8.734;2023-08-31T06:30:48;97465.69;;;12.84;100.00
11448;BME280;43755;49.736;8.734;2023-08-31T06:32:50;97477.25;;;12.97;100.00
11448;BME280;43755;49.736;8.734;2023-08-31T06:34:52;97469.88;;;12.88;100.00
11448;BME280;43755;49.736;8.734;2023-08-31T06:36:53;97470.34;;;12.94;100.00
11448;BME280;43755;49.736;8.734;2023-08-31T06:38:54;97478.03;;;12.99;100.00
11448;BME280;43755;49.736;8.734;2023-08-31T06:40:56;97474.72;;;13.09;100.00
11448;BME280;43755;49.736;8.734;2023-08-31T06:42:59;97485.44;;;13.08;100.00
11448;BME280;43755;49.736;8.734;2023-08-31T06:45:01;97486.88;;;13.13;100.00
11448;BME280;43755;49.736;8.734;2023-08-31T06:47:02;97486.88;;;13.13;100.00
11448;BME280;43755;49.736;8.734;2023-08-31T06:49:06;97490.22;;;13.17;100.00
11448;BME280;43755;49.736;8.734;2023-08-31T06:51:07;97482.59;;;13.11;100.00
11448;BME280;43755;49.736;8.734;2023-08-31T06:53:08;97488.34;;;13.19;100.00
11448;BME280;43755;49.736;8.734;2023-08-31T06:55:10;97488.72;;;13.13;100.00
11448;BME280;43755;49.736;8.734;2023-08-31T06:57:11;97497.66;;;12.96;100.00
11448;BME280;43755;49.736;8.734;2023-08-31T06:59:12;97496.25;;;13.05;100.00
11448;BME280;43755;49.736;8.734;2023-08-31T07:01:13;97494.38;;;13.07;100.00
11448;BME280;43755;49.736;8.734;2023-08-31T07:03:14;97494.84;;;13.13;100.00
11448;BME280;43755;49.736;8.734;2023-08-31T07:05:17;97504.03;;;13.08;100.00
11448;BME280;43755;49.736;8.734;2023-08-31T07:07:20;97505.38;;;13.01;100.00
11448;BME280;43755;49.736;8.734;2023-08-31T07:09:22;97497.19;;;13.04;100.00
11448;BME280;43755;49.736;8.734;2023-08-31T07:11:23;97504.97;;;12.93;100.00
11448;BME280;43755;49.736;8.734;2023-08-31T07:13:25;97508.88;;;13.01;100.00
11448;BME280;43755;49.736;8.734;2023-08-31T07:15:26;97506.88;;;13.05;100.00
11448;BME280;43755;49.736;8.734;2023-08-31T07:17:28;97508.31;;;13.10;100.00
11448;BME280;43755;49.736;8.734;2023-08-31T07:19:29;97509.25;;;13.09;100.00
11448;BME280;43755;49.736;8.734;2023-08-31T07:21:32;97512.63;;;12.97;100.00
11448;BME280;43755;49.736;8.734;2023-08-31T07:23:33;97521.34;;;12.85;100.00
11448;BME280;43755;49.736;8.734;2023-08-31T07:25:35;97522.38;;;12.83;100.00
11448;BME280;43755;49.736;8.734;2023-08-31T07:27:36;97522.03;;;13.03;100.00
11448;BME280;43755;49.736;8.734;2023-08-31T07:29:37;97523.69;;;13.20;100.00
11448;BME280;43755;49.736;8.734;2023-08-31T07:31:38;97526.19;;;13.23;100.00
11448;BME280;43755;49.736;8.734;2023-08-31T07:33:39;97521.63;;;13.39;100.00
11448;BME280;43755;49.736;8.734;2023-08-31T07:35:41;97522.22;;;13.72;100.00
11448;BME280;43755;49.736;8.734;2023-08-31T07:37:43;97522.81;;;14.04;100.00
11448;BME280;43755;49.736;8.734;2023-08-31T07:39:45;97521.38;;;14.13;100.00
11448;BME280;43755;49.736;8.734;2023-08-31T07:41:46;97526.72;;;14.13;100.00
11448;BME280;43755;49.736;8.734;2023-08-31T07:43:47;97532.53;;;14.32;100.00
11448;BME280;43755;49.736;8.734;2023-08-31T07:45:49;97536.94;;;14.19;100.00
11448;BME280;43755;49.736;8.734;2023-08-31T07:47:51;97539.41;;;14.22;100.00
11448;BME280;43755;49.736;8.734;2023-08-31T07:49:52;97545.81;;;14.32;100.00
11448;BME280;43755;49.736;8.734;2023-08-31T07:51:54;97544.63;;;14.23;100.00
11448;BME280;43755;49.736;8.734;2023-08-31T07:53:56;97545.34;;;13.99;100.00
11448;BME280;43755;49.736;8.734;2023-08-31T07:55:58;97541.25;;;14.07;100.00
11448;BME280;43755;49.736;8.734;2023-08-31T07:58:00;97544.94;;;14.19;100.00
11448;BME280;43755;49.736;8.734;2023-08-31T08:00:01;97550.34;;;14.17;100.00
11448;BME280;43755;49.736;8.734;2023-08-31T08:02:03;97551.22;;;14.04;100.00
11448;BME280;43755;49.736;8.734;2023-08-31T08:04:04;97556.16;;;14.10;100.00
11448;BME280;43755;49.736;8.734;2023-08-31T08:06:06;97561.84;;;14.18;100.00
11448;BME280;43755;49.736;8.734;2023-08-31T08:08:08;97565.38;;;14.04;100.00
11448;BME280;43755;49.736;8.734;2023-08-31T08:10:12;97569.34;;;14.11;100.00
11448;BME280;43755;49.736;8.734;2023-08-31T08:12:13;97568.19;;;14.29;100.00
11448;BME280;43755;49.736;8.734;2023-08-31T08:14:14;97569.41;;;14.38;100.00
11448;BME280;43755;49.736;8.734;2023-08-31T08:16:16;97570.63;;;14.47;100.00
11448;BME280;43755;49.736;8.734;2023-08-31T08:18:16;97570.22;;;14.53;100.00
11448;BME280;43755;49.736;8.734;2023-08-31T08:20:18;97566.72;;;14.52;100.00
11448;BME280;43755;49.736;8.734;2023-08-31T08:22:18;97573.69;;;14.41;100.00
11448;BME280;43755;49.736;8.734;2023-08-31T08:24:20;97579.97;;;14.40;100.00
11448;BME280;43755;49.736;8.734;2023-08-31T08:26:23;97579.38;;;14.49;100.00
11448;BME280;43755;49.736;8.734;2023-08-31T08:28:24;97581.22;;;14.61;100.00
11448;BME280;43755;49.736;8.734;2023-08-31T08:30:26;97586.28;;;14.51;100.00
11448;BME280;43755;49.736;8.734;2023-08-31T08:32:27;97588.06;;;14.65;100.00
11448;BME280;43755;49.736;8.734;2023-08-31T08:34:28;97577.19;;;14.68;100.00
11448;BME280;43755;49.736;8.734;2023-08-31T08:36:30;97584.44;;;14.93;100.00
11448;BME280;43755;49.736;8.734;2023-08-31T08:38:31;97579.22;;;15.04;100.00
11448;BME280;43755;49.736;8.734;2023-08-31T08:40:34;97577.78;;;15.12;100.00
11448;BME280;43755;49.736;8.734;2023-08-31T08:42:41;97582.75;;;15.04;100.00
11448;BME280;43755;49.736;8.734;2023-08-31T08:44:43;97583.81;;;15.14;100.00
11448;BME280;43755;49.736;8.734;2023-08-31T08:46:45;97580.63;;;15.09;100.00
11448;BME280;43755;49.736;8.734;2023-08-31T08:48:48;97579.69;;;15.10;100.00
11448;BME280;43755;49.736;8.734;2023-08-31T08:50:50;97574.28;;;15.25;100.00
11448;BME280;43755;49.736;8.734;2023-08-31T08:52:52;97584.09;;;15.49;100.00
11448;BME280;43755;49.736;8.734;2023-08-31T08:54:54;97589.25;;;15.65;100.00
11448;BME280;43755;49.736;8.734;2023-08-31T08:56:57;97587.31;;;15.67;100.00
11448;BME280;43755;49.736;8.734;2023-08-31T08:58:59;97583.69;;;15.55;100.00
11448;BME280;43755;49.736;8.734;2023-08-31T09:01:01;97588.47;;;15.50;100.00
11448;BME280;43755;49.736;8.734;2023-08-31T09:03:03;97585.06;;;15.48;100.00
11448;BME280;43755;49.736;8.734;2023-08-31T09:05:05;97584.94;;;15.50;100.00
11448;BME280;43755;49.736;8.734;2023-08-31T09:07:06;97582.28;;;15.50;100.00
11448;BME280;43755;49.736;8.734;2023-08-31T09:09:09;97588.19;;;15.55;100.00
11448;BME280;43755;49.736;8.734;2023-08-31T09:11:19;97587.50;;;15.51;100.00
11448;BME280;43755;49.736;8.734;2023-08-31T09:13:21;97586.75;;;15.49;100.00
11448;BME280;43755;49.736;8.734;2023-08-31T09:15:23;97592.41;;;15.45;100.00
11448;BME280;43755;49.736;8.734;2023-08-31T09:17:26;97587.16;;;15.43;100.00
11448;BME280;43755;49.736;8.734;2023-08-31T09:19:28;97590.09;;;15.53;100.00
11448;BME280;43755;49.736;8.734;2023-08-31T09:21:38;97592.78;;;15.53;100.00
11448;BME280;43755;49.736;8.734;2023-08-31T09:23:40;97604.41;;;15.65;100.00
11448;BME280;43755;49.736;8.734;2023-08-31T09:25:43;97583.28;;;15.87;100.00
11448;BME280;43755;49.736;8.734;2023-08-31T09:27:44;97581.88;;;15.94;100.00
11448;BME280;43755;49.736;8.734;2023-08-31T09:29:45;97585.31;;;15.83;100.00
11448;BME280;43755;49.736;8.734;2023-08-31T09:31:48;97583.47;;;15.96;100.00
11448;BME280;43755;49.736;8.734;2023-08-31T09:33:51;97587.03;;;15.72;100.00
11448;BME280;43755;49.736;8.734;2023-08-31T09:35:55;97584.13;;;15.75;100.00
11448;BME280;43755;49.736;8.734;2023-08-31T09:37:56;97588.19;;;15.68;100.00
11448;BME280;43755;49.736;8.734;2023-08-31T09:40:01;97586.66;;;15.51;100.00
11448;BME280;43755;49.736;8.734;2023-08-31T09:42:03;97588.41;;;15.52;100.00
11448;BME280;43755;49.736;8.734;2023-08-31T09:44:14;97583.03;;;15.39;100.00
11448;BME280;43755;49.736;8.734;2023-08-31T09:46:17;97590.88;;;15.55;100.00
11448;BME280;43755;49.736;8.734;2023-08-31T09:48:22;97587.22;;;15.69;100.00
11448;BME280;43755;49.736;8.734;2023-08-31T09:50:25;97592.03;;;15.76;100.00
11448;BME280;43755;49.736;8.734;2023-08-31T09:52:26;97589.97;;;15.67;100.00
11448;BME280;43755;49.736;8.734;2023-08-31T09:54:28;97588.69;;;15.73;100.00
11448;BME280;43755;49.736;8.734;2023-08-31T09:56:33;97593.09;;;15.86;100.00
11448;BME280;43755;49.736;8.734;2023-08-31T09:58:34;97588.69;;;15.98;100.00
11448;BME280;43755;49.736;8.734;2023-08-31T10:00:37;97590.28;;;16.13;100.00
11448;BME280;43755;49.736;8.734;2023-08-31T10:02:38;97594.53;;;16.16;100.00
11448;BME280;43755;49.736;8.734;2023-08-31T10:04:42;97600.03;;;16.02;100.00
11448;BME280;43755;49.736;8.734;2023-08-31T10:06:43;97602.44;;;16.05;100.00
11448;BME280;43755;49.736;8.734;2023-08-31T10:08:45;97605.13;;;16.05;100.00
11448;BME280;43755;49.736;8.734;2023-08-31T10:10:46;97603.53;;;16.02;96.85
11448;BME280;43755;49.736;8.734;2023-08-31T10:12:48;97597.97;;;16.18;100.00
11448;BME280;43755;49.736;8.734;2023-08-31T10:14:49;97594.50;;;16.28;96.61
11448;BME280;43755;49.736;8.734;2023-08-31T10:16:53;97602.56;;;16.52;99.77
11448;BME280;43755;49.736;8.734;2023-08-31T10:18:57;97602.03;;;16.60;99.77
11448;BME280;43755;49.736;8.734;2023-08-31T10:21:00;97605.56;;;16.60;93.38
11448;BME280;43755;49.736;8.734;2023-08-31T10:23:03;97601.25;;;16.94;98.18
11448;BME280;43755;49.736;8.734;2023-08-31T10:25:06;97600.09;;;17.09;88.81
11448;BME280;43755;49.736;8.734;2023-08-31T10:27:17;97595.66;;;16.97;87.76
11448;BME280;43755;49.736;8.734;2023-08-31T10:29:26;97595.75;;;16.85;90.64
11448;BME280;43755;49.736;8.734;2023-08-31T10:31:30;97600.09;;;17.09;91.96
11448;BME280;43755;49.736;8.734;2023-08-31T10:33:31;97605.66;;;17.30;82.36
11448;BME280;43755;49.736;8.734;2023-08-31T10:35:40;97609.72;;;17.47;84.75
11448;BME280;43755;49.736;8.734;2023-08-31T10:37:43;97596.03;;;17.63;87.56
11448;BME280;43755;49.736;8.734;2023-08-31T10:39:45;97601.81;;;17.56;81.41